createdAt,value
2022-09-10T00:02:16.253Z,100.00
2022-09-10T00:04:43.555Z,100.00
2022-09-10T00:07:11.640Z,100.00
2022-09-10T00:09:39.452Z,100.00
2022-09-10T00:12:07.083Z,100.00
2022-09-10T00:14:34.111Z,100.00
2022-09-10T00:17:01.756Z,100.00
2022-09-10T00:19:31.237Z,100.00
2022-09-10T00:21:59.111Z,100.00
2022-09-10T00:24:26.167Z,100.00
2022-09-10T00:26:53.653Z,100.00
2022-09-10T00:29:20.927Z,100.00
2022-09-10T00:31:48.087Z,100.00
2022-09-10T00:34:15.480Z,100.00
2022-09-10T00:36:43.959Z,100.00
2022-09-10T00:39:14.608Z,100.00
2022-09-10T00:41:43.947Z,100.00
2022-09-10T00:44:41.715Z,100.00
2022-09-10T00:47:20.305Z,100.00
2022-09-10T00:49:50.192Z,100.00
2022-09-10T00:52:17.564Z,100.00
2022-09-10T00:54:45.142Z,100.00
2022-09-10T00:57:15.153Z,100.00
2022-09-10T00:59:47.185Z,100.00
2022-09-10T01:02:15.048Z,100.00
2022-09-10T01:04:42.985Z,100.00
2022-09-10T01:07:13.707Z,100.00
2022-09-10T01:09:40.972Z,100.00
2022-09-10T01:12:12.597Z,100.00
2022-09-10T01:14:58.790Z,100.00
2022-09-10T01:17:57.218Z,100.00
2022-09-10T01:21:06.923Z,100.00
2022-09-10T01:23:53.017Z,100.00
2022-09-10T01:26:22.896Z,100.00
2022-09-10T01:29:08.504Z,100.00
2022-09-10T01:31:47.335Z,100.00
2022-09-10T01:34:26.238Z,100.00
2022-09-10T01:36:55.154Z,100.00
2022-09-10T01:39:24.006Z,100.00
2022-09-10T01:41:54.456Z,100.00
2022-09-10T01:44:47.493Z,100.00
2022-09-10T01:47:53.604Z,100.00
2022-09-10T01:50:30.141Z,100.00
2022-09-10T01:53:23.146Z,100.00
2022-09-10T01:56:03.776Z,100.00
2022-09-10T01:58:37.793Z,100.00
2022-09-10T02:01:10.934Z,100.00
2022-09-10T02:03:39.634Z,100.00
2022-09-10T02:06:10.045Z,100.00
2022-09-10T02:08:39.651Z,100.00
2022-09-10T02:11:11.780Z,100.00
2022-09-10T02:13:39.638Z,100.00
2022-09-10T02:16:10.207Z,100.00
2022-09-10T02:18:38.585Z,100.00
2022-09-10T02:21:06.397Z,100.00
2022-09-10T02:23:42.831Z,100.00
2022-09-10T02:26:14.487Z,100.00
2022-09-10T02:28:49.604Z,100.00
2022-09-10T02:31:18.639Z,100.00
2022-09-10T02:33:46.197Z,100.00
2022-09-10T02:36:13.245Z,100.00
2022-09-10T02:38:40.454Z,100.00
2022-09-10T02:41:09.421Z,100.00
2022-09-10T02:43:38.093Z,100.00
2022-09-10T02:46:07.404Z,100.00
2022-09-10T02:48:35.741Z,100.00
2022-09-10T02:51:03.869Z,100.00
2022-09-10T02:53:31.693Z,100.00
2022-09-10T02:56:01.061Z,100.00
2022-09-10T02:58:31.387Z,100.00
2022-09-10T03:01:14.700Z,100.00
2022-09-10T03:03:42.562Z,100.00
2022-09-10T03:06:10.433Z,100.00
2022-09-10T03:08:37.617Z,100.00
2022-09-10T03:11:05.134Z,100.00
2022-09-10T03:13:34.303Z,100.00
2022-09-10T03:16:05.103Z,100.00
2022-09-10T03:18:33.205Z,100.00
2022-09-10T03:21:13.841Z,100.00
2022-09-10T03:23:44.058Z,100.00
2022-09-10T03:26:14.107Z,100.00
2022-09-10T03:28:43.612Z,100.00
2022-09-10T03:31:12.079Z,100.00
2022-09-10T03:33:41.016Z,100.00
2022-09-10T03:36:09.694Z,100.00
2022-09-10T03:38:36.858Z,100.00
2022-09-10T03:41:04.805Z,100.00
2022-09-10T03:43:32.305Z,100.00
2022-09-10T03:45:59.821Z,100.00
2022-09-10T03:48:26.966Z,100.00
2022-09-10T03:50:54.789Z,100.00
2022-09-10T03:53:22.325Z,100.00
2022-09-10T03:55:50.727Z,100.00
2022-09-10T03:58:18.244Z,100.00
2022-09-10T04:00:46.553Z,100.00
2022-09-10T04:03:14.648Z,100.00
2022-09-10T04:05:45.534Z,100.00
2022-09-10T04:08:14.132Z,100.00
2022-09-10T04:10:43.050Z,100.00
2022-09-10T04:13:11.227Z,100.00
2022-09-10T04:15:39.425Z,100.00
2022-09-10T04:18:07.516Z,100.00
2022-09-10T04:20:35.118Z,100.00
2022-09-10T04:23:03.257Z,100.00
2022-09-10T04:25:32.278Z,100.00
2022-09-10T04:27:59.457Z,100.00
2022-09-10T04:30:26.485Z,100.00
2022-09-10T04:32:54.781Z,100.00
2022-09-10T04:35:21.842Z,100.00
2022-09-10T04:37:48.991Z,100.00
2022-09-10T04:40:16.697Z,100.00
2022-09-10T04:42:43.771Z,100.00
2022-09-10T04:45:11.037Z,100.00
2022-09-10T04:47:38.392Z,100.00
2022-09-10T04:50:06.995Z,100.00
2022-09-10T04:52:34.249Z,100.00
2022-09-10T04:55:01.660Z,100.00
2022-09-10T04:57:29.107Z,100.00
2022-09-10T04:59:57.111Z,100.00
2022-09-10T05:02:24.715Z,100.00
2022-09-10T05:04:51.808Z,100.00
2022-09-10T05:07:18.867Z,100.00
2022-09-10T05:09:46.208Z,100.00
2022-09-10T05:12:19.817Z,100.00
2022-09-10T05:14:47.126Z,100.00
2022-09-10T05:17:14.129Z,100.00
2022-09-10T05:19:41.306Z,100.00
2022-09-10T05:22:09.728Z,100.00
2022-09-10T05:24:36.890Z,100.00
2022-09-10T05:27:04.177Z,100.00
2022-09-10T05:29:31.632Z,100.00
2022-09-10T05:31:58.872Z,100.00
2022-09-10T05:34:26.511Z,100.00
2022-09-10T05:36:54.824Z,100.00
2022-09-10T05:39:22.007Z,100.00
2022-09-10T05:41:49.096Z,100.00
2022-09-10T05:44:17.604Z,100.00
2022-09-10T05:46:45.596Z,100.00
2022-09-10T05:49:13.151Z,100.00
2022-09-10T05:51:41.428Z,100.00
2022-09-10T05:54:08.525Z,100.00
2022-09-10T05:56:35.807Z,100.00
2022-09-10T05:59:04.217Z,100.00
2022-09-10T06:01:32.110Z,100.00
2022-09-10T06:03:59.731Z,100.00
2022-09-10T06:06:28.341Z,100.00
2022-09-10T06:08:55.821Z,100.00
2022-09-10T06:11:23.948Z,100.00
2022-09-10T06:13:51.062Z,100.00
2022-09-10T06:16:18.645Z,100.00
2022-09-10T06:18:46.073Z,100.00
2022-09-10T06:21:15.885Z,100.00
2022-09-10T06:23:43.976Z,100.00
2022-09-10T06:26:17.107Z,100.00
2022-09-10T06:28:44.773Z,100.00
2022-09-10T06:31:17.087Z,100.00
2022-09-10T06:33:44.987Z,100.00
2022-09-10T06:36:13.214Z,100.00
2022-09-10T06:38:41.008Z,100.00
2022-09-10T06:41:12.269Z,100.00
2022-09-10T06:43:41.420Z,100.00
2022-09-10T06:46:44.175Z,100.00
2022-09-10T06:49:03.737Z,100.00
2022-09-10T06:51:32.770Z,100.00
2022-09-10T06:54:02.795Z,100.00
2022-09-10T06:56:30.620Z,100.00
2022-09-10T06:59:02.190Z,100.00
2022-09-10T07:01:30.535Z,100.00
2022-09-10T07:03:59.857Z,100.00
2022-09-10T07:06:28.000Z,100.00
2022-09-10T07:08:57.056Z,100.00
2022-09-10T07:11:25.975Z,100.00
2022-09-10T07:13:54.516Z,100.00
2022-09-10T07:16:23.730Z,100.00
2022-09-10T07:18:52.301Z,100.00
2022-09-10T07:21:22.650Z,100.00
2022-09-10T07:23:55.163Z,100.00
2022-09-10T07:26:22.369Z,100.00
2022-09-10T07:28:49.733Z,100.00
2022-09-10T07:31:20.193Z,100.00
2022-09-10T07:33:48.228Z,100.00
2022-09-10T07:36:17.876Z,100.00
2022-09-10T07:38:45.519Z,100.00
2022-09-10T07:41:14.341Z,100.00
2022-09-10T07:43:42.776Z,100.00
2022-09-10T07:46:20.611Z,100.00
2022-09-10T07:48:53.173Z,100.00
2022-09-10T07:51:20.543Z,100.00
2022-09-10T07:53:53.425Z,100.00
2022-09-10T07:56:23.113Z,100.00
2022-09-10T07:58:51.443Z,100.00
2022-09-10T08:01:19.730Z,100.00
2022-09-10T08:03:48.060Z,100.00
2022-09-10T08:06:17.172Z,100.00
2022-09-10T08:08:44.955Z,100.00
2022-09-10T08:11:16.624Z,100.00
2022-09-10T08:13:46.168Z,100.00
2022-09-10T08:16:20.454Z,100.00
2022-09-10T08:18:48.728Z,100.00
2022-09-10T08:21:17.559Z,100.00
2022-09-10T08:23:56.415Z,100.00
2022-09-10T08:26:25.687Z,100.00
2022-09-10T08:28:57.867Z,100.00
2022-09-10T08:31:26.618Z,100.00
2022-09-10T08:33:55.732Z,100.00
2022-09-10T08:36:24.159Z,100.00
2022-09-10T08:38:52.014Z,100.00
2022-09-10T08:41:31.277Z,100.00
2022-09-10T08:44:04.803Z,100.00
2022-09-10T08:46:43.304Z,98.27
2022-09-10T08:49:39.735Z,100.00
2022-09-10T08:52:33.836Z,99.63
2022-09-10T08:55:16.231Z,99.83
2022-09-10T08:57:50.179Z,97.32
2022-09-10T09:00:21.398Z,96.52
2022-09-10T09:03:03.417Z,93.38
2022-09-10T09:05:58.280Z,95.14
2022-09-10T09:08:29.765Z,94.01
2022-09-10T09:11:14.596Z,94.31
2022-09-10T09:13:41.605Z,94.71
2022-09-10T09:16:39.689Z,92.50
2022-09-10T09:19:37.372Z,92.79
2022-09-10T09:22:19.662Z,90.60
2022-09-10T09:25:13.635Z,88.44
2022-09-10T09:27:44.355Z,88.42
2022-09-10T09:30:24.123Z,86.59
2022-09-10T09:32:57.601Z,85.64
2022-09-10T09:35:34.656Z,80.81
2022-09-10T09:38:08.301Z,80.93
2022-09-10T09:41:06.677Z,77.26
2022-09-10T09:43:42.909Z,78.52
2022-09-10T09:46:18.670Z,78.51
2022-09-10T09:48:47.326Z,78.42
2022-09-10T09:51:21.012Z,80.57
2022-09-10T09:54:01.028Z,79.23
2022-09-10T09:56:43.264Z,78.84
2022-09-10T09:59:34.878Z,79.15
2022-09-10T10:02:10.730Z,74.97
2022-09-10T10:04:42.236Z,77.16
2022-09-10T10:07:10.185Z,78.50
2022-09-10T10:09:42.842Z,71.85
2022-09-10T10:12:20.360Z,72.95
2022-09-10T10:14:47.745Z,72.98
2022-09-10T10:17:34.346Z,72.55
2022-09-10T10:20:38.479Z,72.32
2022-09-10T10:23:31.132Z,74.09
2022-09-10T10:25:58.613Z,72.30
2022-09-10T10:28:27.507Z,70.61
2022-09-10T10:30:57.121Z,68.13
2022-09-10T10:33:29.571Z,66.51
2022-09-10T10:36:17.821Z,66.42
2022-09-10T10:39:02.312Z,67.38
2022-09-10T10:41:29.850Z,65.03
2022-09-10T10:44:24.134Z,61.89
2022-09-10T10:47:12.047Z,61.58
2022-09-10T10:49:57.521Z,63.62
2022-09-10T10:52:59.857Z,63.81
2022-09-10T10:55:27.923Z,61.79
2022-09-10T10:58:24.261Z,64.52
2022-09-10T11:01:12.034Z,65.71
2022-09-10T11:04:01.390Z,64.54
2022-09-10T11:06:35.478Z,65.49
2022-09-10T11:09:11.597Z,61.99
2022-09-10T11:11:53.889Z,60.66
2022-09-10T11:14:23.219Z,65.50
2022-09-10T11:16:58.628Z,62.08
2022-09-10T11:20:27.756Z,61.90
2022-09-10T11:23:15.125Z,58.98
2022-09-10T11:25:54.285Z,59.16
2022-09-10T11:28:30.164Z,59.33
2022-09-10T11:31:05.467Z,61.12
2022-09-10T11:33:39.463Z,61.73
2022-09-10T11:36:10.682Z,59.33
2022-09-10T11:38:51.523Z,60.98
2022-09-10T11:41:28.507Z,64.41
2022-09-10T11:44:08.006Z,61.06
2022-09-10T11:46:45.224Z,60.75
2022-09-10T11:49:21.714Z,59.22
2022-09-10T11:51:49.353Z,58.90
2022-09-10T11:54:19.256Z,60.87
2022-09-10T11:56:49.360Z,59.94
2022-09-10T11:59:27.126Z,56.87
2022-09-10T12:02:29.058Z,57.73
2022-09-10T12:05:14.685Z,55.86
2022-09-10T12:08:05.365Z,58.37
2022-09-10T12:10:39.892Z,55.73
2022-09-10T12:13:10.466Z,55.93
2022-09-10T12:15:38.182Z,55.53
2022-09-10T12:18:12.651Z,55.76
2022-09-10T12:20:48.740Z,56.63
2022-09-10T12:23:26.795Z,56.15
2022-09-10T12:26:05.204Z,56.95
2022-09-10T12:28:53.702Z,56.60
2022-09-10T12:31:22.583Z,57.54
2022-09-10T12:33:51.133Z,56.96
2022-09-10T12:36:26.871Z,55.54
2022-09-10T12:39:22.147Z,56.26
2022-09-10T12:41:49.813Z,53.88
2022-09-10T12:44:37.659Z,55.40
2022-09-10T12:47:16.741Z,53.85
2022-09-10T12:49:58.521Z,56.08
2022-09-10T12:52:53.676Z,55.16
2022-09-10T12:55:22.854Z,55.63
2022-09-10T12:58:46.303Z,53.56
2022-09-10T13:01:28.866Z,52.23
2022-09-10T13:03:58.888Z,52.96
2022-09-10T13:06:40.659Z,52.38
2022-09-10T13:09:22.174Z,54.04
2022-09-10T13:11:52.604Z,53.60
2022-09-10T13:14:38.309Z,53.38
2022-09-10T13:17:06.148Z,50.60
2022-09-10T13:19:33.077Z,51.58
2022-09-10T13:22:00.082Z,53.89
2022-09-10T13:24:36.403Z,53.83
2022-09-10T13:27:40.060Z,56.90
2022-09-10T13:30:17.580Z,55.32
2022-09-10T13:32:48.349Z,55.56
2022-09-10T13:35:22.564Z,52.55
2022-09-10T13:38:09.818Z,51.22
2022-09-10T13:41:32.461Z,52.99
2022-09-10T13:44:17.838Z,53.16
2022-09-10T13:46:51.238Z,51.60
2022-09-10T13:49:30.780Z,51.58
2022-09-10T13:51:59.409Z,49.62
2022-09-10T13:54:36.092Z,49.92
2022-09-10T13:57:15.836Z,49.98
2022-09-10T13:59:43.535Z,48.32
2022-09-10T14:02:10.835Z,48.86
2022-09-10T14:04:44.737Z,47.84
2022-09-10T14:07:19.105Z,48.85
2022-09-10T14:09:49.757Z,48.86
2022-09-10T14:12:18.345Z,49.06
2022-09-10T14:14:48.454Z,49.53
2022-09-10T14:17:19.236Z,50.14
2022-09-10T14:19:55.507Z,49.57
2022-09-10T14:22:24.947Z,51.02
2022-09-10T14:24:54.676Z,51.62
2022-09-10T14:27:39.085Z,49.71
2022-09-10T14:30:24.900Z,51.00
2022-09-10T14:32:52.969Z,50.91
2022-09-10T14:35:43.292Z,49.22
2022-09-10T14:38:23.513Z,49.49
2022-09-10T14:40:59.063Z,49.99
2022-09-10T14:43:30.768Z,50.35
2022-09-10T14:45:58.469Z,48.89
2022-09-10T14:48:29.901Z,50.51
2022-09-10T14:51:24.318Z,50.95
2022-09-10T14:53:58.706Z,50.97
2022-09-10T14:56:55.812Z,50.15
2022-09-10T14:59:31.382Z,50.68
2022-09-10T15:02:03.269Z,49.04
2022-09-10T15:04:30.303Z,48.77
2022-09-10T15:06:59.021Z,48.28
2022-09-10T15:09:27.813Z,46.85
2022-09-10T15:11:58.950Z,48.42
2022-09-10T15:14:26.288Z,48.44
2022-09-10T15:16:54.171Z,47.60
2022-09-10T15:19:22.225Z,49.06
2022-09-10T15:21:49.916Z,49.35
2022-09-10T15:24:19.391Z,49.68
2022-09-10T15:26:47.016Z,49.94
2022-09-10T15:29:14.868Z,49.91
2022-09-10T15:31:43.665Z,49.91
2022-09-10T15:34:11.368Z,50.78
2022-09-10T15:36:40.126Z,49.26
2022-09-10T15:39:08.366Z,49.91
2022-09-10T15:41:35.361Z,51.56
2022-09-10T15:44:03.179Z,50.62
2022-09-10T15:46:30.704Z,51.92
2022-09-10T15:48:59.485Z,53.64
2022-09-10T15:51:26.958Z,53.24
2022-09-10T15:53:54.459Z,52.84
2022-09-10T15:56:24.383Z,53.26
2022-09-10T15:58:57.224Z,52.85
2022-09-10T16:01:28.056Z,53.50
2022-09-10T16:03:57.393Z,54.52
2022-09-10T16:06:27.706Z,56.02
2022-09-10T16:08:57.187Z,55.63
2022-09-10T16:11:25.496Z,56.52
2022-09-10T16:13:52.601Z,57.84
2022-09-10T16:16:21.832Z,58.80
2022-09-10T16:18:52.530Z,59.30
2022-09-10T16:21:23.631Z,59.98
2022-09-10T16:23:52.310Z,61.10
2022-09-10T16:26:21.973Z,61.78
2022-09-10T16:28:50.335Z,62.78
2022-09-10T16:31:20.390Z,63.56
2022-09-10T16:33:49.836Z,64.16
2022-09-10T16:36:20.752Z,64.22
2022-09-10T16:38:53.168Z,65.04
2022-09-10T16:41:21.336Z,65.17
2022-09-10T16:43:48.700Z,66.48
2022-09-10T16:46:17.347Z,67.17
2022-09-10T16:48:45.215Z,68.02
2022-09-10T16:51:16.953Z,68.74
2022-09-10T16:53:46.918Z,69.89
2022-09-10T16:56:15.675Z,71.05
2022-09-10T16:58:46.425Z,70.61
2022-09-10T17:01:14.417Z,69.74
2022-09-10T17:03:42.910Z,68.91
2022-09-10T17:06:14.918Z,69.33
2022-09-10T17:08:43.480Z,69.49
2022-09-10T17:11:11.030Z,69.29
2022-09-10T17:13:38.017Z,69.26
2022-09-10T17:16:29.566Z,69.84
2022-09-10T17:19:23.572Z,69.30
2022-09-10T17:21:53.057Z,68.92
2022-09-10T17:24:24.664Z,68.30
2022-09-10T17:26:52.700Z,67.85
2022-09-10T17:29:22.295Z,68.37
2022-09-10T17:31:51.592Z,68.71
2022-09-10T17:34:21.384Z,69.30
2022-09-10T17:36:48.866Z,69.53
2022-09-10T17:39:16.680Z,69.18
2022-09-10T17:41:44.097Z,69.76
2022-09-10T17:44:11.982Z,69.32
2022-09-10T17:46:39.413Z,69.08
2022-09-10T17:49:06.736Z,69.94
2022-09-10T17:51:34.718Z,70.62
2022-09-10T17:54:04.523Z,70.54
2022-09-10T17:56:31.895Z,71.39
2022-09-10T17:59:04.227Z,71.95
2022-09-10T18:01:38.716Z,73.31
2022-09-10T18:04:07.238Z,73.70
2022-09-10T18:06:39.389Z,73.85
2022-09-10T18:09:07.811Z,74.47
2022-09-10T18:11:37.837Z,74.95
2022-09-10T18:14:05.529Z,75.05
2022-09-10T18:16:34.929Z,75.26
2022-09-10T18:19:13.888Z,75.44
2022-09-10T18:21:42.807Z,75.78
2022-09-10T18:24:13.392Z,75.86
2022-09-10T18:26:43.454Z,76.85
2022-09-10T18:29:17.164Z,77.75
2022-09-10T18:31:46.601Z,77.88
2022-09-10T18:34:23.048Z,79.29
2022-09-10T18:36:54.470Z,78.85
2022-09-10T18:39:23.020Z,78.89
2022-09-10T18:41:50.342Z,79.79
2022-09-10T18:44:20.754Z,80.65
2022-09-10T18:46:49.645Z,80.94
2022-09-10T18:49:21.705Z,81.99
2022-09-10T18:51:49.237Z,81.72
2022-09-10T18:54:17.440Z,81.88
2022-09-10T18:56:45.307Z,82.22
2022-09-10T18:59:15.268Z,82.64
2022-09-10T19:01:43.824Z,82.62
2022-09-10T19:04:14.103Z,83.41
2022-09-10T19:06:43.672Z,83.50
2022-09-10T19:09:13.530Z,84.10
2022-09-10T19:11:42.773Z,84.83
2022-09-10T19:14:16.913Z,85.37
2022-09-10T19:16:44.036Z,86.03
2022-09-10T19:19:15.219Z,86.88
2022-09-10T19:21:42.211Z,88.06
2022-09-10T19:24:09.219Z,89.28
2022-09-10T19:26:36.543Z,90.29
2022-09-10T19:29:04.420Z,90.78
2022-09-10T19:31:33.729Z,92.54
2022-09-10T19:34:06.553Z,93.23
2022-09-10T19:36:35.770Z,94.15
2022-09-10T19:39:05.323Z,94.84
2022-09-10T19:41:34.046Z,95.24
2022-09-10T19:44:01.915Z,95.78
2022-09-10T19:46:30.529Z,96.54
2022-09-10T19:48:59.432Z,96.83
2022-09-10T19:51:28.646Z,96.97
2022-09-10T19:53:56.259Z,97.23
2022-09-10T19:56:26.486Z,97.63
2022-09-10T19:58:55.655Z,98.05
2022-09-10T20:01:25.935Z,97.45
2022-09-10T20:03:54.552Z,98.24
2022-09-10T20:06:23.258Z,98.07
2022-09-10T20:08:50.677Z,98.64
2022-09-10T20:11:23.304Z,98.52
2022-09-10T20:13:55.323Z,99.18
2022-09-10T20:16:23.756Z,98.86
2022-09-10T20:18:50.845Z,99.42
2022-09-10T20:21:20.729Z,98.89
2022-09-10T20:23:51.000Z,98.90
2022-09-10T20:26:26.692Z,99.61
2022-09-10T20:29:06.123Z,98.90
2022-09-10T20:31:35.623Z,99.16
2022-09-10T20:34:05.397Z,99.70
2022-09-10T20:36:33.500Z,99.49
2022-09-10T20:39:00.664Z,100.00
2022-09-10T20:41:31.496Z,100.00
2022-09-10T20:43:59.859Z,100.00
2022-09-10T20:46:29.064Z,100.00
2022-09-10T20:49:02.871Z,100.00
2022-09-10T20:51:40.487Z,100.00
2022-09-10T20:54:16.037Z,100.00
2022-09-10T20:56:43.880Z,100.00
2022-09-10T20:59:12.527Z,100.00
2022-09-10T21:01:39.661Z,100.00
2022-09-10T21:04:06.768Z,100.00
2022-09-10T21:06:34.436Z,100.00
2022-09-10T21:09:02.507Z,100.00
2022-09-10T21:11:31.300Z,100.00
2022-09-10T21:14:00.434Z,100.00
2022-09-10T21:16:38.842Z,100.00
2022-09-10T21:19:10.392Z,100.00
2022-09-10T21:21:39.466Z,100.00
2022-09-10T21:24:09.889Z,100.00
2022-09-10T21:26:39.375Z,100.00
2022-09-10T21:29:10.761Z,100.00
2022-09-10T21:31:38.244Z,100.00
2022-09-10T21:34:06.064Z,100.00
2022-09-10T21:36:35.569Z,100.00
2022-09-10T21:39:05.239Z,100.00
2022-09-10T21:41:36.851Z,100.00
2022-09-10T21:44:07.533Z,100.00
2022-09-10T21:46:34.602Z,100.00
2022-09-10T21:49:02.381Z,100.00
2022-09-10T21:51:29.799Z,100.00
2022-09-10T21:53:59.189Z,100.00
2022-09-10T21:56:27.868Z,100.00
2022-09-10T21:58:59.225Z,100.00
2022-09-10T22:01:28.977Z,100.00
2022-09-10T22:03:59.595Z,100.00
2022-09-10T22:06:36.360Z,100.00
2022-09-10T22:09:10.325Z,100.00
2022-09-10T22:11:41.201Z,100.00
2022-09-10T22:14:12.703Z,100.00
2022-09-10T22:16:39.747Z,100.00
2022-09-10T22:19:09.436Z,100.00
2022-09-10T22:21:40.875Z,100.00
2022-09-10T22:24:11.959Z,100.00
2022-09-10T22:26:42.522Z,100.00
2022-09-10T22:29:10.200Z,100.00
2022-09-10T22:31:37.775Z,100.00
2022-09-10T22:34:07.552Z,100.00
2022-09-10T22:36:39.637Z,100.00
2022-09-10T22:39:15.021Z,100.00
2022-09-10T22:41:42.653Z,100.00
2022-09-10T22:44:10.295Z,100.00
2022-09-10T22:46:38.055Z,100.00
2022-09-10T22:49:05.972Z,100.00
2022-09-10T22:51:36.013Z,100.00
2022-09-10T22:54:04.397Z,100.00
2022-09-10T22:56:31.499Z,100.00
2022-09-10T22:58:59.526Z,100.00
2022-09-10T23:01:31.853Z,100.00
2022-09-10T23:04:00.243Z,100.00
2022-09-10T23:06:29.628Z,100.00
2022-09-10T23:09:01.719Z,100.00
2022-09-10T23:11:30.507Z,100.00
2022-09-10T23:14:03.435Z,100.00
2022-09-10T23:16:36.444Z,100.00
2022-09-10T23:19:06.078Z,100.00
2022-09-10T23:21:34.936Z,100.00
2022-09-10T23:24:04.908Z,100.00
2022-09-10T23:26:32.697Z,100.00
2022-09-10T23:29:03.488Z,100.00
2022-09-10T23:31:32.760Z,100.00
2022-09-10T23:34:03.543Z,100.00
2022-09-10T23:36:32.613Z,100.00
2022-09-10T23:39:01.484Z,100.00
2022-09-10T23:41:29.881Z,100.00
2022-09-10T23:43:57.331Z,100.00
2022-09-10T23:46:25.092Z,100.00
2022-09-10T23:48:52.390Z,100.00
2022-09-10T23:51:20.784Z,100.00
2022-09-10T23:53:48.665Z,100.00
2022-09-10T23:56:17.717Z,100.00
2022-09-10T23:58:45.346Z,100.00
